sensor_id;sensor_type;location;lat;lon;timestamp;temperature;humidity
15384;DHT22;7790;53.022;12.968;2022-10-31T00:00:09;21.60;55.50
15384;DHT22;7790;53.022;12.968;2022-10-31T00:04:16;21.60;55.50
15384;DHT22;7790;53.022;12.968;2022-10-31T00:08:17;21.60;55.60
15384;DHT22;7790;53.022;12.968;2022-10-31T00:12:18;21.60;55.50
15384;DHT22;7790;53.022;12.968;2022-10-31T00:16:23;21.60;55.60
15384;DHT22;7790;53.022;12.968;2022-10-31T00:20:24;21.60;55.50
15384;DHT22;7790;53.022;12.968;2022-10-31T00:24:25;21.50;55.50
15384;DHT22;7790;53.022;12.968;2022-10-31T00:28:26;21.50;55.50
15384;DHT22;7790;53.022;12.968;2022-10-31T00:32:29;21.50;55.50
15384;DHT22;7790;53.022;12.968;2022-10-31T00:36:31;21.50;55.50
15384;DHT22;7790;53.022;12.968;2022-10-31T00:40:31;21.50;55.50
15384;DHT22;7790;53.022;12.968;2022-10-31T00:44:32;21.40;55.50
15384;DHT22;7790;53.022;12.968;2022-10-31T00:48:33;21.40;55.50
15384;DHT22;7790;53.022;12.968;2022-10-31T00:52:34;21.40;55.50
15384;DHT22;7790;53.022;12.968;2022-10-31T00:56:35;21.40;55.50
15384;DHT22;7790;53.022;12.968;2022-10-31T01:00:37;21.30;55.50
15384;DHT22;7790;53.022;12.968;2022-10-31T01:04:38;21.30;55.50
15384;DHT22;7790;53.022;12.968;2022-10-31T01:08:39;21.30;55.50
15384;DHT22;7790;53.022;12.968;2022-10-31T01:12:46;21.30;55.50
15384;DHT22;7790;53.022;12.968;2022-10-31T01:16:48;21.20;55.40
15384;DHT22;7790;53.022;12.968;2022-10-31T01:21:06;21.20;55.50
15384;DHT22;7790;53.022;12.968;2022-10-31T01:25:09;21.20;55.50
15384;DHT22;7790;53.022;12.968;2022-10-31T01:29:10;21.20;55.50
15384;DHT22;7790;53.022;12.968;2022-10-31T01:33:10;21.20;55.50
15384;DHT22;7790;53.022;12.968;2022-10-31T01:37:12;21.10;55.50
15384;DHT22;7790;53.022;12.968;2022-10-31T01:41:15;21.10;55.50
15384;DHT22;7790;53.022;12.968;2022-10-31T01:45:17;21.10;55.50
15384;DHT22;7790;53.022;12.968;2022-10-31T01:49:51;21.10;55.60
15384;DHT22;7790;53.022;12.968;2022-10-31T01:54:01;21.10;55.70
15384;DHT22;7790;53.022;12.968;2022-10-31T01:58:06;21.10;55.60
15384;DHT22;7790;53.022;12.968;2022-10-31T02:02:08;21.00;55.60
15384;DHT22;7790;53.022;12.968;2022-10-31T02:06:19;21.00;55.60
15384;DHT22;7790;53.022;12.968;2022-10-31T02:10:22;21.00;55.60
15384;DHT22;7790;53.022;12.968;2022-10-31T02:14:28;21.00;55.60
15384;DHT22;7790;53.022;12.968;2022-10-31T02:18:30;21.00;55.60
15384;DHT22;7790;53.022;12.968;2022-10-31T02:28:26;20.90;55.70
15384;DHT22;7790;53.022;12.968;2022-10-31T02:36:57;20.80;55.60
15384;DHT22;7790;53.022;12.968;2022-10-31T02:45:42;20.80;55.70
15384;DHT22;7790;53.022;12.968;2022-10-31T02:49:59;20.80;55.70
15384;DHT22;7790;53.022;12.968;2022-10-31T02:54:03;20.70;55.60
15384;DHT22;7790;53.022;12.968;2022-10-31T02:58:11;20.80;55.70
15384;DHT22;7790;53.022;12.968;2022-10-31T03:02:26;20.70;55.70
15384;DHT22;7790;53.022;12.968;2022-10-31T03:10:59;20.70;55.70
15384;DHT22;7790;53.022;12.968;2022-10-31T03:15:25;20.70;55.70
15384;DHT22;7790;53.022;12.968;2022-10-31T03:19:54;20.70;55.80
15384;DHT22;7790;53.022;12.968;2022-10-31T03:23:57;20.60;55.70
15384;DHT22;7790;53.022;12.968;2022-10-31T03:28:01;20.60;55.80
15384;DHT22;7790;53.022;12.968;2022-10-31T03:32:07;20.60;55.80
15384;DHT22;7790;53.022;12.968;2022-10-31T03:36:11;20.60;55.80
15384;DHT22;7790;53.022;12.968;2022-10-31T03:40:15;20.60;55.80
15384;DHT22;7790;53.022;12.968;2022-10-31T03:44:19;20.60;55.80
15384;DHT22;7790;53.022;12.968;2022-10-31T03:48:29;20.50;55.80
15384;DHT22;7790;53.022;12.968;2022-10-31T03:52:48;20.50;55.80
15384;DHT22;7790;53.022;12.968;2022-10-31T03:56:56;20.50;55.90
15384;DHT22;7790;53.022;12.968;2022-10-31T04:01:00;20.50;56.00
15384;DHT22;7790;53.022;12.968;2022-10-31T04:05:03;20.50;55.90
15384;DHT22;7790;53.022;12.968;2022-10-31T04:09:06;20.50;55.90
15384;DHT22;7790;53.022;12.968;2022-10-31T04:13:16;20.50;56.00
15384;DHT22;7790;53.022;12.968;2022-10-31T04:17:27;20.40;56.00
15384;DHT22;7790;53.022;12.968;2022-10-31T04:21:30;20.40;56.10
15384;DHT22;7790;53.022;12.968;2022-10-31T04:25:32;20.40;56.20
15384;DHT22;7790;53.022;12.968;2022-10-31T04:29:33;20.40;56.10
15384;DHT22;7790;53.022;12.968;2022-10-31T04:33:34;20.40;56.20
15384;DHT22;7790;53.022;12.968;2022-10-31T04:37:36;20.40;56.20
15384;DHT22;7790;53.022;12.968;2022-10-31T04:41:38;20.40;56.20
15384;DHT22;7790;53.022;12.968;2022-10-31T04:45:46;20.40;56.70
15384;DHT22;7790;53.022;12.968;2022-10-31T04:49:48;20.40;56.20
15384;DHT22;7790;53.022;12.968;2022-10-31T04:53:49;20.30;56.20
15384;DHT22;7790;53.022;12.968;2022-10-31T04:58:02;20.30;56.20
15384;DHT22;7790;53.022;12.968;2022-10-31T05:02:03;20.30;56.20
15384;DHT22;7790;53.022;12.968;2022-10-31T05:06:19;20.30;56.20
15384;DHT22;7790;53.022;12.968;2022-10-31T05:10:23;20.30;56.20
15384;DHT22;7790;53.022;12.968;2022-10-31T05:14:25;20.30;56.10
15384;DHT22;7790;53.022;12.968;2022-10-31T05:18:44;20.30;56.30
15384;DHT22;7790;53.022;12.968;2022-10-31T05:23:05;20.20;56.20
15384;DHT22;7790;53.022;12.968;2022-10-31T05:27:07;20.20;56.20
15384;DHT22;7790;53.022;12.968;2022-10-31T05:31:08;20.20;56.10
15384;DHT22;7790;53.022;12.968;2022-10-31T05:35:12;20.20;56.20
15384;DHT22;7790;53.022;12.968;2022-10-31T05:39:31;20.20;56.10
15384;DHT22;7790;53.022;12.968;2022-10-31T05:43:38;20.20;56.20
15384;DHT22;7790;53.022;12.968;2022-10-31T05:47:41;20.10;56.20
15384;DHT22;7790;53.022;12.968;2022-10-31T05:52:01;20.10;56.10
15384;DHT22;7790;53.022;12.968;2022-10-31T05:56:12;20.10;56.40
15384;DHT22;7790;53.022;12.968;2022-10-31T06:00:13;20.10;56.40
15384;DHT22;7790;53.022;12.968;2022-10-31T06:04:21;20.10;56.30
15384;DHT22;7790;53.022;12.968;2022-10-31T06:08:22;20.10;56.20
15384;DHT22;7790;53.022;12.968;2022-10-31T06:12:24;20.10;56.30
15384;DHT22;7790;53.022;12.968;2022-10-31T06:16:45;20.10;56.30
15384;DHT22;7790;53.022;12.968;2022-10-31T06:21:09;20.10;56.20
15384;DHT22;7790;53.022;12.968;2022-10-31T06:25:10;20.10;56.20
15384;DHT22;7790;53.022;12.968;2022-10-31T06:29:15;20.00;56.30
15384;DHT22;7790;53.022;12.968;2022-10-31T06:33:37;20.00;56.20
15384;DHT22;7790;53.022;12.968;2022-10-31T06:37:39;20.00;56.10
15384;DHT22;7790;53.022;12.968;2022-10-31T06:41:54;20.00;56.20
15384;DHT22;7790;53.022;12.968;2022-10-31T06:45:57;20.00;56.30
15384;DHT22;7790;53.022;12.968;2022-10-31T06:50:08;20.00;56.30
15384;DHT22;7790;53.022;12.968;2022-10-31T06:54:10;20.00;56.30
15384;DHT22;7790;53.022;12.968;2022-10-31T06:58:11;20.00;56.30
15384;DHT22;7790;53.022;12.968;2022-10-31T07:02:14;20.00;56.30
15384;DHT22;7790;53.022;12.968;2022-10-31T07:06:17;20.00;56.30
15384;DHT22;7790;53.022;12.968;2022-10-31T07:10:18;20.00;56.40
15384;DHT22;7790;53.022;12.968;2022-10-31T07:14:27;19.90;56.40
15384;DHT22;7790;53.022;12.968;2022-10-31T07:18:29;19.90;56.60
15384;DHT22;7790;53.022;12.968;2022-10-31T07:22:35;19.90;56.50
15384;DHT22;7790;53.022;12.968;2022-10-31T07:26:37;19.90;56.30
15384;DHT22;7790;53.022;12.968;2022-10-31T07:30:38;19.90;56.20
15384;DHT22;7790;53.022;12.968;2022-10-31T07:34:39;19.90;56.40
15384;DHT22;7790;53.022;12.968;2022-10-31T07:38:55;19.90;56.40
15384;DHT22;7790;53.022;12.968;2022-10-31T07:42:59;19.90;56.20
15384;DHT22;7790;53.022;12.968;2022-10-31T07:47:22;19.90;56.40
15384;DHT22;7790;53.022;12.968;2022-10-31T07:51:41;19.90;56.30
15384;DHT22;7790;53.022;12.968;2022-10-31T07:56:01;19.90;56.10
15384;DHT22;7790;53.022;12.968;2022-10-31T08:00:08;19.90;56.20
15384;DHT22;7790;53.022;12.968;2022-10-31T08:04:16;19.90;56.10
15384;DHT22;7790;53.022;12.968;2022-10-31T08:08:36;19.90;56.10
15384;DHT22;7790;53.022;12.968;2022-10-31T08:12:38;19.90;56.10
15384;DHT22;7790;53.022;12.968;2022-10-31T08:16:41;19.90;56.30
15384;DHT22;7790;53.022;12.968;2022-10-31T08:20:44;19.90;56.30
15384;DHT22;7790;53.022;12.968;2022-10-31T08:24:45;19.90;56.40
15384;DHT22;7790;53.022;12.968;2022-10-31T08:28:46;19.90;56.30
15384;DHT22;7790;53.022;12.968;2022-10-31T08:33:00;19.90;56.30
15384;DHT22;7790;53.022;12.968;2022-10-31T08:37:24;19.90;56.10
15384;DHT22;7790;53.022;12.968;2022-10-31T08:41:28;19.90;56.30
15384;DHT22;7790;53.022;12.968;2022-10-31T08:45:31;19.90;56.00
15384;DHT22;7790;53.022;12.968;2022-10-31T08:49:32;20.00;56.10
15384;DHT22;7790;53.022;12.968;2022-10-31T08:53:34;20.00;56.10
15384;DHT22;7790;53.022;12.968;2022-10-31T08:58:11;20.00;56.20
15384;DHT22;7790;53.022;12.968;2022-10-31T09:02:18;20.00;56.40
15384;DHT22;7790;53.022;12.968;2022-10-31T09:06:19;20.10;58.00
15384;DHT22;7790;53.022;12.968;2022-10-31T09:10:23;20.10;58.00
15384;DHT22;7790;53.022;12.968;2022-10-31T09:14:24;20.10;57.80
15384;DHT22;7790;53.022;12.968;2022-10-31T09:18:54;20.10;57.60
15384;DHT22;7790;53.022;12.968;2022-10-31T09:22:59;20.10;57.50
15384;DHT22;7790;53.022;12.968;2022-10-31T09:27:01;20.10;57.40
15384;DHT22;7790;53.022;12.968;2022-10-31T09:31:02;20.10;57.40
15384;DHT22;7790;53.022;12.968;2022-10-31T09:35:23;20.20;57.40
15384;DHT22;7790;53.022;12.968;2022-10-31T09:39:24;20.20;57.30
15384;DHT22;7790;53.022;12.968;2022-10-31T09:52:26;20.20;57.50
15384;DHT22;7790;53.022;12.968;2022-10-31T09:56:31;20.30;57.30
15384;DHT22;7790;53.022;12.968;2022-10-31T10:00:34;20.40;57.30
15384;DHT22;7790;53.022;12.968;2022-10-31T10:08:50;20.40;57.30
15384;DHT22;7790;53.022;12.968;2022-10-31T10:26:38;20.50;57.10
15384;DHT22;7790;53.022;12.968;2022-10-31T10:30:50;20.50;57.00
15384;DHT22;7790;53.022;12.968;2022-10-31T10:35:04;20.50;57.00
15384;DHT22;7790;53.022;12.968;2022-10-31T10:39:16;20.50;56.90
15384;DHT22;7790;53.022;12.968;2022-10-31T10:47:29;20.50;56.80
15384;DHT22;7790;53.022;12.968;2022-10-31T10:56:17;20.60;56.80
15384;DHT22;7790;53.022;12.968;2022-10-31T11:00:23;20.60;56.80
15384;DHT22;7790;53.022;12.968;2022-10-31T11:04:35;20.60;56.70
15384;DHT22;7790;53.022;12.968;2022-10-31T11:08:36;20.60;56.60
15384;DHT22;7790;53.022;12.968;2022-10-31T11:12:37;20.60;56.60
15384;DHT22;7790;53.022;12.968;2022-10-31T11:16:40;20.60;56.80
15384;DHT22;7790;53.022;12.968;2022-10-31T11:20:54;20.50;55.00
15384;DHT22;7790;53.022;12.968;2022-10-31T11:24:55;20.40;55.30
15384;DHT22;7790;53.022;12.968;2022-10-31T11:28:57;20.30;56.00
15384;DHT22;7790;53.022;12.968;2022-10-31T11:32:59;20.30;56.60
15384;DHT22;7790;53.022;12.968;2022-10-31T11:37:11;20.30;56.60
15384;DHT22;7790;53.022;12.968;2022-10-31T11:41:34;20.20;56.60
15384;DHT22;7790;53.022;12.968;2022-10-31T11:45:36;20.20;56.70
15384;DHT22;7790;53.022;12.968;2022-10-31T11:49:41;20.20;56.70
15384;DHT22;7790;53.022;12.968;2022-10-31T11:53:53;20.10;56.70
15384;DHT22;7790;53.022;12.968;2022-10-31T11:57:56;20.10;56.80
15384;DHT22;7790;53.022;12.968;2022-10-31T12:02:00;20.10;56.80
15384;DHT22;7790;53.022;12.968;2022-10-31T12:06:13;20.00;56.70
15384;DHT22;7790;53.022;12.968;2022-10-31T12:10:21;20.00;57.00
15384;DHT22;7790;53.022;12.968;2022-10-31T12:14:43;20.00;56.90
15384;DHT22;7790;53.022;12.968;2022-10-31T12:23:23;19.90;56.80
15384;DHT22;7790;53.022;12.968;2022-10-31T12:36:21;19.90;56.80
15384;DHT22;7790;53.022;12.968;2022-10-31T12:53:29;19.80;56.80
15384;DHT22;7790;53.022;12.968;2022-10-31T12:57:58;19.70;56.70
15384;DHT22;7790;53.022;12.968;2022-10-31T13:02:23;19.70;56.60
15384;DHT22;7790;53.022;12.968;2022-10-31T13:06:34;19.70;56.60
15384;DHT22;7790;53.022;12.968;2022-10-31T13:10:49;19.70;56.60
15384;DHT22;7790;53.022;12.968;2022-10-31T13:14:54;19.70;56.60
15384;DHT22;7790;53.022;12.968;2022-10-31T13:23:27;19.70;56.60
15384;DHT22;7790;53.022;12.968;2022-10-31T13:31:52;19.70;56.70
15384;DHT22;7790;53.022;12.968;2022-10-31T13:44:24;19.60;57.00
15384;DHT22;7790;53.022;12.968;2022-10-31T13:52:26;19.60;58.10
15384;DHT22;7790;53.022;12.968;2022-10-31T13:56:30;19.70;58.30
15384;DHT22;7790;53.022;12.968;2022-10-31T14:00:32;19.70;58.50
15384;DHT22;7790;53.022;12.968;2022-10-31T14:04:46;19.60;58.40
15384;DHT22;7790;53.022;12.968;2022-10-31T14:08:50;19.60;58.50
15384;DHT22;7790;53.022;12.968;2022-10-31T14:12:53;19.60;58.50
15384;DHT22;7790;53.022;12.968;2022-10-31T14:16:56;19.60;58.40
15384;DHT22;7790;53.022;12.968;2022-10-31T14:20:58;19.60;58.60
15384;DHT22;7790;53.022;12.968;2022-10-31T14:24:59;19.70;58.40
15384;DHT22;7790;53.022;12.968;2022-10-31T14:29:04;19.70;58.30
15384;DHT22;7790;53.022;12.968;2022-10-31T14:33:23;19.70;58.20
15384;DHT22;7790;53.022;12.968;2022-10-31T14:50:55;19.90;57.80
15384;DHT22;7790;53.022;12.968;2022-10-31T14:54:58;19.90;57.70
15384;DHT22;7790;53.022;12.968;2022-10-31T14:59:03;19.90;57.60
15384;DHT22;7790;53.022;12.968;2022-10-31T15:03:15;19.90;57.60
15384;DHT22;7790;53.022;12.968;2022-10-31T15:07:20;19.90;57.70
15384;DHT22;7790;53.022;12.968;2022-10-31T15:11:24;19.90;57.60
15384;DHT22;7790;53.022;12.968;2022-10-31T15:15:26;19.80;57.70
15384;DHT22;7790;53.022;12.968;2022-10-31T15:19:29;19.80;57.80
15384;DHT22;7790;53.022;12.968;2022-10-31T15:23:30;19.80;57.80
15384;DHT22;7790;53.022;12.968;2022-10-31T15:27:32;19.80;57.80
15384;DHT22;7790;53.022;12.968;2022-10-31T15:31:34;19.70;57.70
15384;DHT22;7790;53.022;12.968;2022-10-31T15:35:35;19.70;57.60
15384;DHT22;7790;53.022;12.968;2022-10-31T15:39:36;19.70;57.70
15384;DHT22;7790;53.022;12.968;2022-10-31T15:43:38;19.60;57.70
15384;DHT22;7790;53.022;12.968;2022-10-31T15:47:53;19.60;58.10
15384;DHT22;7790;53.022;12.968;2022-10-31T15:51:54;19.20;60.00
15384;DHT22;7790;53.022;12.968;2022-10-31T15:56:01;18.90;61.60
15384;DHT22;7790;53.022;12.968;2022-10-31T16:00:03;18.80;62.20
15384;DHT22;7790;53.022;12.968;2022-10-31T16:12:44;19.10;60.20
15384;DHT22;7790;53.022;12.968;2022-10-31T16:16:46;19.20;59.80
15384;DHT22;7790;53.022;12.968;2022-10-31T16:20:51;19.40;59.40
15384;DHT22;7790;53.022;12.968;2022-10-31T16:25:14;19.50;59.10
15384;DHT22;7790;53.022;12.968;2022-10-31T16:29:43;19.60;59.40
15384;DHT22;7790;53.022;12.968;2022-10-31T16:33:44;19.70;58.70
15384;DHT22;7790;53.022;12.968;2022-10-31T16:37:45;19.80;58.40
15384;DHT22;7790;53.022;12.968;2022-10-31T16:41:52;20.00;58.50
15384;DHT22;7790;53.022;12.968;2022-10-31T16:45:55;20.00;58.50
15384;DHT22;7790;53.022;12.968;2022-10-31T16:49:56;20.20;58.40
15384;DHT22;7790;53.022;12.968;2022-10-31T16:54:00;20.40;58.90
15384;DHT22;7790;53.022;12.968;2022-10-31T16:58:01;20.40;58.50
15384;DHT22;7790;53.022;12.968;2022-10-31T17:02:03;20.60;58.40
15384;DHT22;7790;53.022;12.968;2022-10-31T17:06:04;20.70;58.40
15384;DHT22;7790;53.022;12.968;2022-10-31T17:10:06;20.80;58.30
15384;DHT22;7790;53.022;12.968;2022-10-31T17:14:08;20.90;58.20
15384;DHT22;7790;53.022;12.968;2022-10-31T17:18:12;21.00;58.40
15384;DHT22;7790;53.022;12.968;2022-10-31T17:22:14;21.10;58.40
15384;DHT22;7790;53.022;12.968;2022-10-31T17:26:15;21.20;58.50
15384;DHT22;7790;53.022;12.968;2022-10-31T17:30:17;21.30;58.40
15384;DHT22;7790;53.022;12.968;2022-10-31T17:34:18;21.40;58.20
15384;DHT22;7790;53.022;12.968;2022-10-31T17:38:19;21.40;58.10
15384;DHT22;7790;53.022;12.968;2022-10-31T17:42:20;21.50;57.70
15384;DHT22;7790;53.022;12.968;2022-10-31T17:46:21;21.60;58.20
15384;DHT22;7790;53.022;12.968;2022-10-31T17:50:25;21.60;57.70
15384;DHT22;7790;53.022;12.968;2022-10-31T17:54:26;21.70;57.80
15384;DHT22;7790;53.022;12.968;2022-10-31T17:58:27;21.70;57.70
15384;DHT22;7790;53.022;12.968;2022-10-31T18:02:29;21.70;57.80
15384;DHT22;7790;53.022;12.968;2022-10-31T18:06:30;21.70;57.70
15384;DHT22;7790;53.022;12.968;2022-10-31T18:10:31;21.70;57.80
15384;DHT22;7790;53.022;12.968;2022-10-31T18:14:32;21.80;57.70
15384;DHT22;7790;53.022;12.968;2022-10-31T18:18:33;21.70;57.60
15384;DHT22;7790;53.022;12.968;2022-10-31T18:22:34;21.80;57.50
15384;DHT22;7790;53.022;12.968;2022-10-31T18:26:35;21.70;57.50
15384;DHT22;7790;53.022;12.968;2022-10-31T18:30:40;21.70;57.40
15384;DHT22;7790;53.022;12.968;2022-10-31T18:34:41;21.70;57.40
15384;DHT22;7790;53.022;12.968;2022-10-31T18:38:42;21.70;57.40
15384;DHT22;7790;53.022;12.968;2022-10-31T18:42:46;21.60;57.30
15384;DHT22;7790;53.022;12.968;2022-10-31T18:46:47;21.60;57.30
15384;DHT22;7790;53.022;12.968;2022-10-31T18:50:48;21.60;57.30
15384;DHT22;7790;53.022;12.968;2022-10-31T18:54:49;21.50;57.20
15384;DHT22;7790;53.022;12.968;2022-10-31T18:58:50;21.50;57.80
15384;DHT22;7790;53.022;12.968;2022-10-31T19:02:51;21.50;57.30
15384;DHT22;7790;53.022;12.968;2022-10-31T19:06:54;21.40;57.20
15384;DHT22;7790;53.022;12.968;2022-10-31T19:10:56;21.40;57.20
15384;DHT22;7790;53.022;12.968;2022-10-31T19:15:02;21.40;57.20
15384;DHT22;7790;53.022;12.968;2022-10-31T19:19:03;21.40;57.30
15384;DHT22;7790;53.022;12.968;2022-10-31T19:23:05;21.30;57.30
15384;DHT22;7790;53.022;12.968;2022-10-31T19:27:08;21.30;57.30
15384;DHT22;7790;53.022;12.968;2022-10-31T19:31:10;21.30;57.40
15384;DHT22;7790;53.022;12.968;2022-10-31T19:35:11;21.30;57.50
15384;DHT22;7790;53.022;12.968;2022-10-31T19:39:11;21.30;57.60
15384;DHT22;7790;53.022;12.968;2022-10-31T19:43:12;21.30;57.60
15384;DHT22;7790;53.022;12.968;2022-10-31T19:47:13;21.30;57.70
15384;DHT22;7790;53.022;12.968;2022-10-31T19:51:16;21.30;57.60
15384;DHT22;7790;53.022;12.968;2022-10-31T19:55:18;21.40;57.80
15384;DHT22;7790;53.022;12.968;2022-10-31T19:59:18;21.40;57.80
15384;DHT22;7790;53.022;12.968;2022-10-31T20:03:19;21.50;57.70
15384;DHT22;7790;53.022;12.968;2022-10-31T20:07:21;21.50;57.70
15384;DHT22;7790;53.022;12.968;2022-10-31T20:11:23;21.60;57.80
15384;DHT22;7790;53.022;12.968;2022-10-31T20:15:24;21.70;57.80
15384;DHT22;7790;53.022;12.968;2022-10-31T20:19:25;21.70;57.70
15384;DHT22;7790;53.022;12.968;2022-10-31T20:23:26;21.80;57.60
15384;DHT22;7790;53.022;12.968;2022-10-31T20:27:27;21.90;57.50
15384;DHT22;7790;53.022;12.968;2022-10-31T20:31:31;21.90;57.30
15384;DHT22;7790;53.022;12.968;2022-10-31T20:35:37;22.00;57.40
15384;DHT22;7790;53.022;12.968;2022-10-31T20:39:38;22.00;57.20
15384;DHT22;7790;53.022;12.968;2022-10-31T20:43:39;22.10;57.20
15384;DHT22;7790;53.022;12.968;2022-10-31T20:47:40;22.10;57.20
15384;DHT22;7790;53.022;12.968;2022-10-31T20:51:41;22.20;57.20
15384;DHT22;7790;53.022;12.968;2022-10-31T20:55:42;22.20;57.60
15384;DHT22;7790;53.022;12.968;2022-10-31T20:59:43;22.30;57.20
15384;DHT22;7790;53.022;12.968;2022-10-31T21:03:44;22.30;57.20
15384;DHT22;7790;53.022;12.968;2022-10-31T21:07:45;22.30;57.20
15384;DHT22;7790;53.022;12.968;2022-10-31T21:11:46;22.30;57.10
15384;DHT22;7790;53.022;12.968;2022-10-31T21:15:47;22.30;57.00
15384;DHT22;7790;53.022;12.968;2022-10-31T21:19:57;22.30;57.50
15384;DHT22;7790;53.022;12.968;2022-10-31T21:24:04;22.30;56.90
15384;DHT22;7790;53.022;12.968;2022-10-31T21:28:07;22.20;56.90
15384;DHT22;7790;53.022;12.968;2022-10-31T21:32:08;22.20;56.90
15384;DHT22;7790;53.022;12.968;2022-10-31T21:36:10;22.20;56.90
15384;DHT22;7790;53.022;12.968;2022-10-31T21:40:11;22.20;56.80
15384;DHT22;7790;53.022;12.968;2022-10-31T21:44:12;22.10;57.30
15384;DHT22;7790;53.022;12.968;2022-10-31T21:48:13;22.10;56.90
15384;DHT22;7790;53.022;12.968;2022-10-31T21:52:13;22.10;56.90
15384;DHT22;7790;53.022;12.968;2022-10-31T21:56:15;22.10;56.90
15384;DHT22;7790;53.022;12.968;2022-10-31T22:00:15;22.00;56.80
15384;DHT22;7790;53.022;12.968;2022-10-31T22:04:17;22.00;56.90
15384;DHT22;7790;53.022;12.968;2022-10-31T22:08:18;22.00;56.80
15384;DHT22;7790;53.022;12.968;2022-10-31T22:12:19;22.00;56.90
15384;DHT22;7790;53.022;12.968;2022-10-31T22:16:21;21.90;56.90
15384;DHT22;7790;53.022;12.968;2022-10-31T22:20:22;21.90;56.90
15384;DHT22;7790;53.022;12.968;2022-10-31T22:24:25;21.90;56.90
15384;DHT22;7790;53.022;12.968;2022-10-31T22:28:28;21.90;57.00
15384;DHT22;7790;53.022;12.968;2022-10-31T22:32:29;21.80;56.90
15384;DHT22;7790;53.022;12.968;2022-10-31T22:36:30;21.80;57.00
15384;DHT22;7790;53.022;12.968;2022-10-31T22:40:32;21.70;57.00
15384;DHT22;7790;53.022;12.968;2022-10-31T22:44:33;21.70;57.10
15384;DHT22;7790;53.022;12.968;2022-10-31T22:48:40;21.70;57.10
15384;DHT22;7790;53.022;12.968;2022-10-31T22:52:41;21.70;57.20
15384;DHT22;7790;53.022;12.968;2022-10-31T22:56:42;21.60;57.10
15384;DHT22;7790;53.022;12.968;2022-10-31T23:00:43;21.60;57.20
15384;DHT22;7790;53.022;12.968;2022-10-31T23:04:44;21.60;57.20
15384;DHT22;7790;53.022;12.968;2022-10-31T23:08:46;21.60;57.30
15384;DHT22;7790;53.022;12.968;2022-10-31T23:12:47;21.50;57.30
15384;DHT22;7790;53.022;12.968;2022-10-31T23:17:07;21.50;57.30
15384;DHT22;7790;53.022;12.968;2022-10-31T23:21:07;21.50;57.30
15384;DHT22;7790;53.022;12.968;2022-10-31T23:25:09;21.40;57.30
15384;DHT22;7790;53.022;12.968;2022-10-31T23:29:10;21.40;57.30
15384;DHT22;7790;53.022;12.968;2022-10-31T23:33:11;21.40;57.40
15384;DHT22;7790;53.022;12.968;2022-10-31T23:37:12;21.30;57.30
15384;DHT22;7790;53.022;12.968;2022-10-31T23:41:13;21.30;57.40
15384;DHT22;7790;53.022;12.968;2022-10-31T23:45:14;21.30;57.40
15384;DHT22;7790;53.022;12.968;2022-10-31T23:49:15;21.30;57.50
15384;DHT22;7790;53.022;12.968;2022-10-31T23:53:16;21.20;57.50
15384;DHT22;7790;53.022;12.968;2022-10-31T23:57:18;21.20;57.50
